Time;durP1;ratioP1;P1;durP2;ratioP2;P2;SDS_P1;SDS_P2;PMS_P1;PMS_P2;Temp;Humidity;BMP_temperature;BMP_pressure;BME280_temperature;BME280_humidity;BME280_pressure;Samples;Min_cycle;Max_cycle;Signal;HPM_P1;HPM_P2
2023/10/05 00:01:12;;;;;;;360.88;87.05;;;;;;;;;;5035279;28;20036;-55
2023/10/05 00:03:38;;;;;;;404.67;89.82;;;;;;;;;;5033609;28;20021;-56
2023/10/05 00:06:13;;;;;;;366.77;88.65;;;;;;;;;;5034084;28;20397;-55
2023/10/05 00:08:40;;;;;;;384.10;90.43;;;;;;;;;;5035624;28;20068;-56
2023/10/05 00:11:06;;;;;;;380.90;88.88;;;;;;;;;;5036164;28;20151;-55
2023/10/05 00:13:33;;;;;;;506.98;97.50;;;;;;;;;;5034030;28;20040;-54
2023/10/05 00:15:59;;;;;;;455.60;93.95;;;;;;;;;;5035042;28;20025;-54
2023/10/05 00:18:25;;;;;;;519.92;98.32;;;;;;;;;;5033482;28;20020;-55
2023/10/05 00:20:53;;;;;;;385.75;92.43;;;;;;;;;;5034752;28;20036;-55
2023/10/05 00:23:19;;;;;;;461.17;96.53;;;;;;;;;;5032681;28;20295;-53
2023/10/05 00:25:44;;;;;;;358.27;91.95;;;;;;;;;;5035878;28;20083;-54
2023/10/05 00:28:11;;;;;;;335.85;81.47;;;;;;;;;;5036025;28;20102;-56
2023/10/05 00:30:37;;;;;;;417.23;90.15;;;;;;;;;;5032678;28;20071;-55
2023/10/05 00:33:07;;;;;;;396.25;89.85;;;;;;;;;;5034076;28;20439;-55
2023/10/05 00:35:33;;;;;;;511.75;97.00;;;;;;;;;;5033777;28;20296;-55
2023/10/05 00:38:12;;;;;;;397.05;93.13;;;;;;;;;;5034886;28;20031;-54
2023/10/05 00:40:42;;;;;;;341.15;92.05;;;;;;;;;;5032552;28;21037;-55
2023/10/05 00:43:13;;;;;;;428.63;94.22;;;;;;;;;;5034808;28;20643;-55
2023/10/05 00:45:39;;;;;;;354.88;91.72;;;;;;;;;;5032797;28;20254;-55
2023/10/05 00:48:13;;;;;;;377.67;93.68;;;;;;;;;;5035355;28;20009;-54
2023/10/05 00:50:39;;;;;;;381.90;95.25;;;;;;;;;;5033400;28;20091;-53
2023/10/05 00:53:08;;;;;;;400.55;95.03;;;;;;;;;;5033140;28;20049;-54
2023/10/05 00:55:35;;;;;;;536.25;101.72;;;;;;;;;;5031990;28;20110;-55
2023/10/05 00:58:01;;;;;;;350.95;94.45;;;;;;;;;;5034559;28;20292;-54
2023/10/05 01:00:27;;;;;;;437.35;98.88;;;;;;;;;;5014905;28;20029;-54
2023/10/05 01:03:22;;;;;;;388.63;96.78;;;;;;;;;;5034503;28;20060;-53
2023/10/05 01:05:55;;;;;;;326.27;92.97;;;;;;;;;;5034630;28;20025;-54
2023/10/05 01:08:23;;;;;;;347.55;93.97;;;;;;;;;;5033727;28;20025;-54
2023/10/05 01:10:49;;;;;;;368.92;92.28;;;;;;;;;;5034358;28;20517;-55
2023/10/05 01:13:30;;;;;;;433.83;96.93;;;;;;;;;;5032473;28;20123;-54
2023/10/05 01:15:56;;;;;;;384.75;95.50;;;;;;;;;;5033290;28;20032;-55
2023/10/05 01:18:25;;;;;;;392.98;95.97;;;;;;;;;;5031822;28;20032;-55
2023/10/05 01:20:50;;;;;;;371.77;96.38;;;;;;;;;;5034296;28;20033;-55
2023/10/05 01:23:15;;;;;;;369.58;96.05;;;;;;;;;;5034054;28;20095;-55
2023/10/05 01:25:40;;;;;;;384.25;97.95;;;;;;;;;;5032990;28;20032;-55
2023/10/05 01:28:07;;;;;;;390.80;97.47;;;;;;;;;;5035148;28;20196;-55
2023/10/05 01:30:37;;;;;;;500.20;103.97;;;;;;;;;;5033243;28;20101;-55
2023/10/05 01:33:03;;;;;;;446.85;98.85;;;;;;;;;;5033925;28;20032;-53
2023/10/05 01:35:28;;;;;;;526.28;104.93;;;;;;;;;;5032335;28;20428;-55
2023/10/05 01:37:53;;;;;;;414.98;100.05;;;;;;;;;;5034370;28;20174;-56
2023/10/05 01:42:46;;;;;;;391.05;81.20;;;;;;;;;;5032263;28;20024;-54
2023/10/05 01:45:17;;;;;;;381.63;78.97;;;;;;;;;;5034274;28;20525;-56
2023/10/05 01:47:46;;;;;;;360.40;85.57;;;;;;;;;;5034150;28;20501;-56
2023/10/05 01:50:32;;;;;;;370.55;87.35;;;;;;;;;;5033584;28;20029;-55
2023/10/05 01:53:07;;;;;;;366.08;79.65;;;;;;;;;;5034013;28;20009;-55
2023/10/05 01:55:34;;;;;;;509.02;91.28;;;;;;;;;;5032070;28;20511;-55
2023/10/05 01:58:00;;;;;;;331.35;84.28;;;;;;;;;;5033887;28;20036;-56
2023/10/05 02:00:25;;;;;;;474.27;90.30;;;;;;;;;;5031877;28;20449;-55
2023/10/05 02:02:52;;;;;;;349.67;85.75;;;;;;;;;;5035053;28;20021;-55
2023/10/05 02:05:19;;;;;;;343.63;81.18;;;;;;;;;;5036242;28;20028;-54
2023/10/05 02:07:45;;;;;;;425.90;86.15;;;;;;;;;;5035044;28;20096;-55
2023/10/05 02:10:13;;;;;;;350.95;84.88;;;;;;;;;;5035682;28;20115;-54
2023/10/05 02:12:39;;;;;;;378.35;85.70;;;;;;;;;;5035638;28;20009;-55
2023/10/05 02:15:12;;;;;;;432.55;88.20;;;;;;;;;;5035397;28;20017;-55
2023/10/05 02:17:41;;;;;;;383.90;86.68;;;;;;;;;;5034369;28;20037;-56
2023/10/05 02:20:16;;;;;;;399.02;88.20;;;;;;;;;;5033173;28;20564;-55
2023/10/05 02:22:46;;;;;;;381.85;87.88;;;;;;;;;;5035174;28;20048;-54
2023/10/05 02:25:12;;;;;;;337.17;87.38;;;;;;;;;;5035203;28;20025;-56
2023/10/05 02:27:46;;;;;;;445.70;90.47;;;;;;;;;;5035431;28;20225;-55
2023/10/05 02:30:11;;;;;;;358.88;88.70;;;;;;;;;;5034832;28;20029;-54
2023/10/05 02:32:37;;;;;;;413.60;89.78;;;;;;;;;;5034478;28;20186;-55
2023/10/05 02:35:18;;;;;;;394.48;89.38;;;;;;;;;;5035625;28;20017;-56
2023/10/05 02:37:47;;;;;;;383.80;89.78;;;;;;;;;;5035611;28;20135;-56
2023/10/05 02:40:12;;;;;;;427.27;91.80;;;;;;;;;;5035232;28;20017;-55
2023/10/05 02:42:39;;;;;;;353.38;89.38;;;;;;;;;;5037258;28;20035;-54
2023/10/05 02:45:05;;;;;;;327.58;89.00;;;;;;;;;;5037135;28;20322;-56
2023/10/05 02:47:31;;;;;;;419.02;88.20;;;;;;;;;;5035808;28;20033;-55
2023/10/05 02:49:57;;;;;;;331.48;87.05;;;;;;;;;;5037069;28;20479;-55
2023/10/05 02:52:25;;;;;;;328.00;86.72;;;;;;;;;;5036272;28;20583;-54
2023/10/05 02:54:50;;;;;;;391.30;90.43;;;;;;;;;;5038419;28;20092;-54
2023/10/05 02:57:20;;;;;;;301.43;88.27;;;;;;;;;;5040275;28;20199;-55
2023/10/05 02:59:46;;;;;;;376.70;90.97;;;;;;;;;;5039584;28;20255;-57
2023/10/05 03:02:14;;;;;;;338.00;90.38;;;;;;;;;;5040424;28;20037;-56
2023/10/05 03:04:46;;;;;;;389.98;89.85;;;;;;;;;;5039674;28;20044;-54
2023/10/05 03:07:15;;;;;;;411.75;92.55;;;;;;;;;;5039516;28;20040;-55
2023/10/05 03:09:43;;;;;;;350.65;91.47;;;;;;;;;;5039646;28;20071;-54
2023/10/05 03:12:08;;;;;;;361.88;92.53;;;;;;;;;;5040030;28;20419;-54
2023/10/05 03:14:34;;;;;;;405.83;95.07;;;;;;;;;;5039666;28;20098;-53
2023/10/05 03:17:04;;;;;;;346.15;90.88;;;;;;;;;;5039968;28;20029;-55
2023/10/05 03:19:33;;;;;;;372.52;92.43;;;;;;;;;;5039768;28;20104;-53
2023/10/05 03:22:04;;;;;;;347.13;92.70;;;;;;;;;;5039282;28;20044;-53
2023/10/05 03:24:30;;;;;;;354.10;93.35;;;;;;;;;;5038740;28;20223;-54
2023/10/05 03:26:55;;;;;;;401.00;95.05;;;;;;;;;;5039259;28;20226;-54
2023/10/05 03:29:21;;;;;;;334.30;93.07;;;;;;;;;;5040408;28;20067;-54
2023/10/05 03:32:13;;;;;;;322.92;92.30;;;;;;;;;;5038123;28;20311;-55
2023/10/05 03:34:39;;;;;;;407.27;95.83;;;;;;;;;;5039139;28;20016;-54
2023/10/05 03:37:10;;;;;;;385.85;94.13;;;;;;;;;;5039073;28;20678;-55
2023/10/05 03:39:40;;;;;;;428.38;96.43;;;;;;;;;;5038897;28;20497;-53
2023/10/05 03:42:05;;;;;;;334.77;93.88;;;;;;;;;;5039797;28;20033;-53
2023/10/05 03:44:31;;;;;;;408.55;96.50;;;;;;;;;;5036750;28;20029;-54
2023/10/05 03:46:57;;;;;;;357.50;95.00;;;;;;;;;;5038153;28;20075;-53
2023/10/05 03:49:22;;;;;;;353.77;93.88;;;;;;;;;;5040235;28;20025;-54
2023/10/05 03:51:50;;;;;;;379.27;95.53;;;;;;;;;;5038676;28;20036;-54
2023/10/05 03:54:21;;;;;;;356.83;95.13;;;;;;;;;;5038669;28;20028;-55
2023/10/05 03:56:50;;;;;;;308.80;92.00;;;;;;;;;;5038776;28;20113;-53
2023/10/05 03:59:16;;;;;;;382.13;95.28;;;;;;;;;;5039291;28;20025;-56
2023/10/05 04:01:41;;;;;;;411.40;96.82;;;;;;;;;;5038022;28;20044;-57
2023/10/05 04:04:08;;;;;;;325.90;93.57;;;;;;;;;;5038978;28;20024;-55
2023/10/05 04:06:34;;;;;;;430.48;96.72;;;;;;;;;;5036298;28;20120;-54
2023/10/05 04:08:59;;;;;;;358.20;95.20;;;;;;;;;;5037309;28;20111;-56
2023/10/05 04:11:27;;;;;;;405.45;96.60;;;;;;;;;;5036830;28;20040;-56
2023/10/05 04:13:53;;;;;;;399.27;80.13;;;;;;;;;;5036932;28;20044;-55
2023/10/05 04:16:22;;;;;;;367.73;83.40;;;;;;;;;;5035517;28;20060;-55
2023/10/05 04:18:50;;;;;;;337.63;77.32;;;;;;;;;;5035030;28;20442;-54
2023/10/05 04:21:15;;;;;;;346.95;85.40;;;;;;;;;;5035432;28;20036;-55
2023/10/05 04:23:43;;;;;;;385.33;89.00;;;;;;;;;;5036581;28;20025;-55
2023/10/05 04:26:09;;;;;;;328.77;88.68;;;;;;;;;;5036743;28;20225;-55
2023/10/05 04:28:35;;;;;;;365.67;90.05;;;;;;;;;;5036113;28;20367;-54
2023/10/05 04:31:00;;;;;;;393.45;91.03;;;;;;;;;;5036552;28;20036;-55
2023/10/05 04:33:29;;;;;;;395.95;93.75;;;;;;;;;;5036175;28;20381;-54
2023/10/05 04:35:55;;;;;;;398.63;93.88;;;;;;;;;;5036727;28;20033;-55
2023/10/05 04:38:22;;;;;;;378.17;93.47;;;;;;;;;;5036834;28;20379;-55
2023/10/05 04:40:51;;;;;;;435.92;96.35;;;;;;;;;;5035555;28;20561;-55
2023/10/05 04:43:17;;;;;;;359.27;93.55;;;;;;;;;;5036461;28;20070;-55
2023/10/05 04:45:42;;;;;;;429.05;96.07;;;;;;;;;;5035946;28;20676;-55
2023/10/05 04:48:12;;;;;;;394.95;95.13;;;;;;;;;;5035910;28;20020;-55
2023/10/05 04:50:37;;;;;;;385.63;95.32;;;;;;;;;;5035871;28;20061;-54
2023/10/05 04:53:09;;;;;;;379.77;96.25;;;;;;;;;;5037021;28;20025;-54
2023/10/05 04:55:41;;;;;;;506.42;101.28;;;;;;;;;;5035352;28;20068;-56
2023/10/05 04:58:23;;;;;;;326.65;95.68;;;;;;;;;;5036219;28;20029;-55
2023/10/05 05:00:53;;;;;;;432.27;99.53;;;;;;;;;;5034439;28;20094;-55
2023/10/05 05:08:32;;;;;;;387.27;98.68;;;;;;;;;;5033881;28;20667;-55
2023/10/05 05:10:58;;;;;;;413.92;100.13;;;;;;;;;;5035769;28;20036;-57
2023/10/05 05:13:27;;;;;;;419.95;98.78;;;;;;;;;;5035254;28;20453;-56
2023/10/05 05:15:52;;;;;;;343.83;98.40;;;;;;;;;;5035071;28;20044;-55
2023/10/05 05:18:17;;;;;;;388.05;99.20;;;;;;;;;;5035095;28;20928;-56
2023/10/05 05:20:44;;;;;;;399.55;100.45;;;;;;;;;;5033886;28;20496;-56
2023/10/05 05:23:10;;;;;;;428.70;100.00;;;;;;;;;;5034211;28;20045;-56
2023/10/05 05:25:37;;;;;;;464.05;101.07;;;;;;;;;;5033912;28;20037;-54
2023/10/05 05:28:05;;;;;;;400.65;100.55;;;;;;;;;;5035146;28;20028;-56
2023/10/05 05:30:30;;;;;;;379.52;99.25;;;;;;;;;;5034789;28;20069;-54
2023/10/05 05:32:56;;;;;;;408.85;100.60;;;;;;;;;;5035296;28;20291;-55
2023/10/05 05:35:22;;;;;;;407.60;102.68;;;;;;;;;;5034937;28;20021;-55
2023/10/05 05:37:47;;;;;;;408.40;103.43;;;;;;;;;;5036596;28;20025;-56
2023/10/05 05:40:13;;;;;;;406.08;102.10;;;;;;;;;;5036476;28;20024;-56
2023/10/05 05:42:39;;;;;;;398.70;102.78;;;;;;;;;;5036510;28;20344;-55
2023/10/05 05:45:09;;;;;;;329.27;99.80;;;;;;;;;;5036380;28;20552;-55
2023/10/05 05:47:35;;;;;;;496.42;105.53;;;;;;;;;;5034430;28;20040;-54
2023/10/05 05:50:01;;;;;;;399.58;100.93;;;;;;;;;;5036727;28;20025;-57
2023/10/05 05:52:26;;;;;;;383.77;101.00;;;;;;;;;;5036117;28;20030;-55
2023/10/05 05:54:51;;;;;;;466.45;102.30;;;;;;;;;;5034566;28;20024;-54
2023/10/05 05:57:20;;;;;;;328.60;99.13;;;;;;;;;;5035969;28;20033;-55
2023/10/05 05:59:45;;;;;;;409.98;100.88;;;;;;;;;;5033921;28;20648;-57
2023/10/05 06:02:11;;;;;;;442.02;101.32;;;;;;;;;;5035431;28;20123;-55
2023/10/05 06:04:37;;;;;;;444.27;101.50;;;;;;;;;;5034947;28;20276;-55
2023/10/05 06:07:09;;;;;;;375.77;98.82;;;;;;;;;;5035209;28;20521;-56
2023/10/05 06:09:37;;;;;;;440.52;100.60;;;;;;;;;;5034918;28;20302;-55
2023/10/05 06:12:02;;;;;;;386.98;97.80;;;;;;;;;;5035546;28;20029;-56
2023/10/05 06:14:28;;;;;;;384.23;97.10;;;;;;;;;;5035251;28;20149;-55
2023/10/05 06:16:53;;;;;;;401.05;97.05;;;;;;;;;;5035330;28;20033;-56
2023/10/05 06:19:18;;;;;;;357.92;97.05;;;;;;;;;;5035482;28;20033;-58
2023/10/05 06:21:45;;;;;;;419.60;99.78;;;;;;;;;;5034707;28;20037;-56
2023/10/05 06:24:10;;;;;;;424.40;98.53;;;;;;;;;;5035489;28;20017;-55
2023/10/05 06:26:37;;;;;;;385.77;96.47;;;;;;;;;;5035354;28;20030;-55
2023/10/05 06:29:08;;;;;;;380.13;97.05;;;;;;;;;;5036761;28;20118;-56
2023/10/05 06:31:34;;;;;;;366.25;96.07;;;;;;;;;;5038787;28;20355;-56
2023/10/05 06:33:59;;;;;;;347.33;93.68;;;;;;;;;;5041769;28;20483;-55
2023/10/05 06:36:25;;;;;;;394.63;94.90;;;;;;;;;;5039855;28;20403;-57
2023/10/05 06:38:50;;;;;;;431.17;95.47;;;;;;;;;;5039139;28;20079;-55
2023/10/05 06:41:22;;;;;;;373.10;92.13;;;;;;;;;;5039289;28;20037;-56
2023/10/05 06:43:48;;;;;;;433.83;94.40;;;;;;;;;;5039260;28;20025;-55
2023/10/05 06:46:20;;;;;;;319.48;88.82;;;;;;;;;;5039663;28;20041;-56
2023/10/05 06:48:45;;;;;;;414.35;93.03;;;;;;;;;;5038065;28;20025;-56
2023/10/05 06:51:13;;;;;;;409.40;90.68;;;;;;;;;;5039757;28;20407;-57
2023/10/05 06:53:38;;;;;;;411.58;91.18;;;;;;;;;;5039009;28;20028;-56
2023/10/05 06:56:03;;;;;;;328.50;87.72;;;;;;;;;;5040509;28;20029;-56
2023/10/05 06:58:29;;;;;;;431.60;90.60;;;;;;;;;;5039967;28;20029;-56
2023/10/05 07:00:54;;;;;;;384.20;88.75;;;;;;;;;;5038718;28;20404;-58
2023/10/05 07:03:20;;;;;;;389.83;87.40;;;;;;;;;;5039991;28;20028;-57
2023/10/05 07:05:46;;;;;;;434.00;90.85;;;;;;;;;;5038318;28;20807;-56
2023/10/05 07:08:12;;;;;;;333.85;86.55;;;;;;;;;;5040396;28;20029;-58
2023/10/05 07:10:37;;;;;;;362.83;88.10;;;;;;;;;;5039296;28;20056;-56
2023/10/05 07:13:03;;;;;;;406.23;88.50;;;;;;;;;;5039209;28;20389;-55
2023/10/05 07:15:29;;;;;;;310.75;85.50;;;;;;;;;;5038721;28;20287;-56
2023/10/05 07:17:54;;;;;;;294.38;83.85;;;;;;;;;;5042617;28;20347;-55
2023/10/05 07:20:20;;;;;;;382.90;85.70;;;;;;;;;;5043636;28;20417;-55
2023/10/05 07:22:46;;;;;;;351.25;84.57;;;;;;;;;;5027763;28;20371;-56
2023/10/05 07:25:11;;;;;;;298.45;80.03;;;;;;;;;;5043109;28;20095;-57
2023/10/05 07:27:37;;;;;;;372.08;81.63;;;;;;;;;;5042765;28;20568;-57
2023/10/05 07:30:03;;;;;;;252.13;75.70;;;;;;;;;;5043960;28;20555;-54
2023/10/05 07:32:29;;;;;;;287.52;75.25;;;;;;;;;;5043194;28;20037;-57
2023/10/05 07:34:55;;;;;;;340.75;76.45;;;;;;;;;;5042220;28;20380;-56
2023/10/05 07:37:20;;;;;;;274.80;72.83;;;;;;;;;;5041697;28;20037;-56
2023/10/05 07:39:46;;;;;;;313.07;75.40;;;;;;;;;;5042043;28;20271;-57
2023/10/05 07:42:11;;;;;;;277.42;73.57;;;;;;;;;;5039617;28;20280;-57
2023/10/05 07:44:37;;;;;;;280.57;74.40;;;;;;;;;;5041736;28;20027;-56
2023/10/05 07:47:03;;;;;;;298.00;75.93;;;;;;;;;;5041102;28;20673;-57
2023/10/05 07:49:29;;;;;;;335.05;77.68;;;;;;;;;;5023518;28;20060;-56
2023/10/05 07:51:54;;;;;;;272.25;75.72;;;;;;;;;;5022912;28;20035;-57
2023/10/05 07:54:20;;;;;;;293.87;77.27;;;;;;;;;;5042352;28;20036;-56
2023/10/05 07:56:45;;;;;;;425.02;82.95;;;;;;;;;;5040452;28;20283;-58
2023/10/05 07:59:10;;;;;;;254.68;77.78;;;;;;;;;;5042107;28;20251;-56
2023/10/05 08:01:36;;;;;;;264.05;77.75;;;;;;;;;;5040563;28;20041;-56
2023/10/05 08:04:01;;;;;;;329.20;79.45;;;;;;;;;;5041807;28;20111;-56
2023/10/05 08:06:27;;;;;;;330.52;80.85;;;;;;;;;;5039740;28;20283;-56
2023/10/05 08:08:53;;;;;;;344.98;83.47;;;;;;;;;;5039813;28;20064;-55
2023/10/05 08:11:20;;;;;;;315.70;79.47;;;;;;;;;;5033672;28;20039;-55
2023/10/05 08:13:45;;;;;;;379.05;82.25;;;;;;;;;;5037317;28;20079;-55
2023/10/05 08:16:12;;;;;;;292.83;78.47;;;;;;;;;;5037519;28;20025;-54
2023/10/05 08:18:37;;;;;;;332.65;80.53;;;;;;;;;;5037031;28;20020;-54
2023/10/05 08:21:04;;;;;;;311.65;79.03;;;;;;;;;;5035933;28;20056;-54
2023/10/05 08:23:29;;;;;;;326.98;80.47;;;;;;;;;;5037539;28;20032;-54
2023/10/05 08:25:57;;;;;;;492.60;86.22;;;;;;;;;;5034935;28;20056;-55
2023/10/05 08:28:24;;;;;;;362.88;81.50;;;;;;;;;;5037473;28;20029;-56
2023/10/05 08:31:04;;;;;;;413.20;83.20;;;;;;;;;;5037913;28;20907;-56
2023/10/05 08:33:33;;;;;;;320.95;79.22;;;;;;;;;;5038002;28;20394;-55
2023/10/05 08:35:59;;;;;;;314.58;77.68;;;;;;;;;;5036121;28;20033;-56
2023/10/05 08:38:24;;;;;;;357.08;79.38;;;;;;;;;;5036447;28;20086;-54
2023/10/05 08:40:52;;;;;;;412.27;79.63;;;;;;;;;;5037311;28;20132;-57
2023/10/05 08:43:19;;;;;;;304.75;73.15;;;;;;;;;;5037295;28;20337;-58
2023/10/05 08:45:51;;;;;;;442.75;77.93;;;;;;;;;;5035447;28;20473;-58
2023/10/05 08:48:28;;;;;;;328.58;72.13;;;;;;;;;;5037006;28;20418;-57
2023/10/05 08:50:55;;;;;;;310.95;71.30;;;;;;;;;;5035606;28;20036;-56
2023/10/05 08:53:20;;;;;;;301.10;70.20;;;;;;;;;;5036769;28;20029;-58
2023/10/05 08:55:47;;;;;;;397.80;73.63;;;;;;;;;;5035501;28;20208;-58
2023/10/05 08:58:18;;;;;;;332.67;69.55;;;;;;;;;;5037670;28;20020;-58
2023/10/05 09:00:44;;;;;;;439.88;73.60;;;;;;;;;;5036439;28;20462;-57
2023/10/05 09:11:31;;;;;;;342.05;66.22;;;;;;;;;;5035826;28;20040;-58
2023/10/05 09:14:12;;;;;;;342.80;66.43;;;;;;;;;;5035794;28;20033;-57
2023/10/05 09:16:41;;;;;;;342.25;66.88;;;;;;;;;;5037634;28;20025;-58
2023/10/05 09:19:33;;;;;;;344.52;67.30;;;;;;;;;;5038108;28;20468;-57
2023/10/05 09:24:25;;;;;;;349.80;68.88;;;;;;;;;;5037167;28;20036;-56
2023/10/05 09:26:51;;;;;;;408.30;72.82;;;;;;;;;;5035035;28;20410;-57
2023/10/05 09:29:22;;;;;;;258.25;67.20;;;;;;;;;;5037425;28;20029;-57
2023/10/05 09:31:51;;;;;;;463.98;76.18;;;;;;;;;;5035414;28;20106;-57
2023/10/05 09:34:17;;;;;;;301.70;71.00;;;;;;;;;;5035992;28;20028;-57
2023/10/05 09:36:42;;;;;;;321.88;71.78;;;;;;;;;;5035434;28;20385;-58
2023/10/05 09:39:10;;;;;;;355.55;72.30;;;;;;;;;;5036913;28;20762;-58
2023/10/05 09:41:36;;;;;;;348.27;74.38;;;;;;;;;;5018525;28;20585;-57
2023/10/05 09:44:07;;;;;;;333.48;73.63;;;;;;;;;;5035964;28;20029;-58
2023/10/05 09:46:34;;;;;;;348.57;74.90;;;;;;;;;;5035947;28;20045;-57
2023/10/05 09:49:01;;;;;;;453.20;78.18;;;;;;;;;;5034425;28;20481;-56
2023/10/05 09:51:28;;;;;;;362.25;75.25;;;;;;;;;;5035856;28;20392;-55
2023/10/05 09:53:54;;;;;;;333.08;74.35;;;;;;;;;;5034282;28;20037;-56
2023/10/05 09:56:20;;;;;;;303.52;74.35;;;;;;;;;;5035658;28;20044;-58
2023/10/05 09:58:45;;;;;;;377.50;76.65;;;;;;;;;;5035009;28;20045;-56
2023/10/05 10:01:12;;;;;;;288.23;74.38;;;;;;;;;;5035225;28;20060;-56
2023/10/05 10:03:45;;;;;;;272.38;66.80;;;;;;;;;;5035774;28;20033;-55
2023/10/05 10:06:12;;;;;;;390.40;75.70;;;;;;;;;;5035034;28;20898;-57
2023/10/05 10:08:50;;;;;;;337.65;73.38;;;;;;;;;;5035241;28;20035;-57
2023/10/05 10:11:19;;;;;;;307.17;71.97;;;;;;;;;;5034194;28;20069;-56
2023/10/05 10:13:50;;;;;;;317.17;76.18;;;;;;;;;;5033048;28;20021;-56
2023/10/05 10:16:17;;;;;;;314.95;71.28;;;;;;;;;;5036176;28;20387;-58
2023/10/05 10:18:45;;;;;;;361.02;71.57;;;;;;;;;;5033869;28;20163;-55
2023/10/05 10:21:19;;;;;;;283.75;68.20;;;;;;;;;;5034347;28;20159;-57
2023/10/05 10:24:03;;;;;;;323.42;69.20;;;;;;;;;;5033342;28;20038;-55
2023/10/05 10:26:29;;;;;;;355.23;71.15;;;;;;;;;;5034790;28;20079;-58
2023/10/05 10:31:25;;;;;;;314.77;67.97;;;;;;;;;;5035163;28;20029;-58
2023/10/05 10:33:51;;;;;;;379.40;73.25;;;;;;;;;;5034353;28;20445;-58
2023/10/05 10:36:35;;;;;;;356.98;71.47;;;;;;;;;;5032784;28;20132;-57
2023/10/05 10:39:21;;;;;;;439.20;76.32;;;;;;;;;;5031469;28;20029;-56
2023/10/05 10:42:01;;;;;;;344.42;75.25;;;;;;;;;;5032301;28;20290;-57
2023/10/05 10:44:26;;;;;;;292.05;72.78;;;;;;;;;;5035670;28;20309;-58
2023/10/05 10:47:08;;;;;;;372.63;75.65;;;;;;;;;;5035322;28;20450;-55
2023/10/05 10:49:34;;;;;;;345.80;72.10;;;;;;;;;;5036527;28;20029;-56
2023/10/05 10:52:02;;;;;;;365.13;71.22;;;;;;;;;;5034623;28;20033;-57
2023/10/05 10:54:28;;;;;;;319.50;67.18;;;;;;;;;;5036759;28;20100;-56
2023/10/05 10:56:55;;;;;;;421.02;71.82;;;;;;;;;;5034809;28;20095;-55
2023/10/05 10:59:26;;;;;;;298.67;67.20;;;;;;;;;;5037171;28;20032;-56
2023/10/05 11:01:59;;;;;;;390.08;70.07;;;;;;;;;;5035345;28;20037;-56
2023/10/05 11:04:32;;;;;;;331.92;66.63;;;;;;;;;;5035592;28;20040;-55
2023/10/05 11:07:08;;;;;;;389.55;71.63;;;;;;;;;;5015614;28;20510;-55
2023/10/05 11:09:35;;;;;;;347.63;67.35;;;;;;;;;;5035135;28;20037;-56
2023/10/05 11:12:15;;;;;;;437.02;71.45;;;;;;;;;;5033103;28;20033;-54
2023/10/05 11:14:44;;;;;;;416.35;71.28;;;;;;;;;;5034867;28;20017;-58
2023/10/05 11:17:35;;;;;;;316.58;67.97;;;;;;;;;;5037306;28;20029;-56
2023/10/05 11:20:25;;;;;;;419.98;74.38;;;;;;;;;;5037311;28;20510;-55
2023/10/05 11:22:45;;;;;;;283.98;68.72;;;;;;;;;;5036628;28;20037;-54
2023/10/05 11:25:14;;;;;;;350.93;71.70;;;;;;;;;;5036514;28;20031;-57
2023/10/05 11:27:48;;;;;;;324.70;70.05;;;;;;;;;;5039437;28;20279;-56
2023/10/05 11:30:18;;;;;;;327.35;70.30;;;;;;;;;;5036629;28;20430;-55
2023/10/05 11:32:56;;;;;;;267.25;69.88;;;;;;;;;;5039868;28;20021;-57
2023/10/05 11:35:28;;;;;;;388.42;74.15;;;;;;;;;;5037717;28;20167;-54
2023/10/05 11:38:04;;;;;;;342.48;73.80;;;;;;;;;;5040892;28;20025;-55
2023/10/05 11:40:31;;;;;;;312.48;71.57;;;;;;;;;;5038961;28;20693;-55
2023/10/05 11:42:56;;;;;;;437.17;78.28;;;;;;;;;;5038928;28;20096;-56
2023/10/05 11:45:23;;;;;;;330.08;72.00;;;;;;;;;;5037970;28;20029;-56
2023/10/05 11:47:52;;;;;;;317.23;72.18;;;;;;;;;;5020640;28;20040;-55
2023/10/05 11:50:25;;;;;;;281.70;71.43;;;;;;;;;;5038067;28;20029;-57
2023/10/05 11:52:52;;;;;;;382.60;74.85;;;;;;;;;;5037999;28;20585;-56
2023/10/05 11:55:18;;;;;;;319.67;73.15;;;;;;;;;;5038345;28;20033;-55
2023/10/05 11:57:44;;;;;;;278.20;72.47;;;;;;;;;;5040184;28;20155;-56
2023/10/05 12:00:12;;;;;;;251.98;72.05;;;;;;;;;;5039260;28;20025;-58
2023/10/05 12:02:37;;;;;;;327.50;74.38;;;;;;;;;;5039192;28;20106;-55
2023/10/05 12:05:03;;;;;;;399.43;77.73;;;;;;;;;;5037244;28;20028;-55
2023/10/05 12:07:29;;;;;;;349.27;75.20;;;;;;;;;;5036780;28;20302;-56
2023/10/05 12:09:54;;;;;;;473.42;79.97;;;;;;;;;;5036795;28;20021;-57
2023/10/05 12:12:20;;;;;;;268.40;72.55;;;;;;;;;;5038229;28;20152;-58
2023/10/05 12:14:46;;;;;;;338.00;75.05;;;;;;;;;;5039483;28;20024;-55
2023/10/05 12:17:11;;;;;;;359.83;74.40;;;;;;;;;;5036936;28;20128;-55
2023/10/05 12:19:37;;;;;;;333.80;72.70;;;;;;;;;;5038792;28;20402;-54
2023/10/05 12:22:03;;;;;;;412.17;79.55;;;;;;;;;;5037807;28;20109;-55
2023/10/05 12:24:30;;;;;;;264.10;72.65;;;;;;;;;;5037964;28;20032;-57
2023/10/05 12:26:58;;;;;;;428.98;78.70;;;;;;;;;;5037308;28;20037;-55
2023/10/05 12:29:23;;;;;;;305.73;74.05;;;;;;;;;;5039760;28;20100;-56
2023/10/05 12:31:51;;;;;;;279.10;72.88;;;;;;;;;;5038155;28;20123;-56
2023/10/05 12:34:17;;;;;;;330.13;75.32;;;;;;;;;;5037528;28;20577;-54
2023/10/05 12:36:45;;;;;;;308.90;74.63;;;;;;;;;;5036692;28;20533;-56
2023/10/05 12:39:11;;;;;;;340.55;75.28;;;;;;;;;;5035566;28;20028;-57
2023/10/05 12:41:40;;;;;;;346.17;75.63;;;;;;;;;;5036572;28;20037;-56
2023/10/05 12:44:09;;;;;;;443.80;79.20;;;;;;;;;;5036007;28;20017;-56
2023/10/05 12:46:39;;;;;;;327.27;76.70;;;;;;;;;;5036860;28;20197;-57
2023/10/05 12:49:07;;;;;;;448.98;81.65;;;;;;;;;;5036985;28;20415;-57
2023/10/05 12:51:34;;;;;;;362.63;76.93;;;;;;;;;;5036862;28;20245;-56
2023/10/05 12:53:59;;;;;;;323.40;76.47;;;;;;;;;;5037889;28;20402;-57
2023/10/05 12:56:25;;;;;;;305.30;75.90;;;;;;;;;;5037314;28;20502;-56
2023/10/05 12:58:50;;;;;;;322.67;76.88;;;;;;;;;;5037324;28;20129;-56
2023/10/05 13:01:15;;;;;;;214.87;72.53;;;;;;;;;;5038419;28;20738;-56
2023/10/05 13:03:40;;;;;;;294.63;75.77;;;;;;;;;;5039140;28;20263;-56
2023/10/05 13:06:10;;;;;;;436.75;82.47;;;;;;;;;;5034682;28;20366;-56
2023/10/05 13:08:36;;;;;;;304.95;76.10;;;;;;;;;;5038894;28;20024;-56
2023/10/05 13:11:03;;;;;;;424.25;81.50;;;;;;;;;;5036145;28;20482;-55
2023/10/05 13:13:29;;;;;;;305.55;77.05;;;;;;;;;;5035570;28;20059;-55
2023/10/05 13:15:54;;;;;;;348.35;78.55;;;;;;;;;;5037333;28;20037;-55
2023/10/05 13:18:19;;;;;;;269.70;76.03;;;;;;;;;;5039524;28;20286;-54
2023/10/05 13:20:47;;;;;;;298.08;76.72;;;;;;;;;;5038384;28;20051;-56
2023/10/05 13:23:12;;;;;;;286.95;75.68;;;;;;;;;;5037397;28;20148;-55
2023/10/05 13:25:40;;;;;;;327.73;77.43;;;;;;;;;;5018972;28;20112;-55
2023/10/05 13:28:06;;;;;;;444.83;83.15;;;;;;;;;;5037240;28;20017;-56
2023/10/05 13:30:40;;;;;;;274.73;75.40;;;;;;;;;;5037812;28;20041;-57
2023/10/05 13:33:13;;;;;;;499.50;85.97;;;;;;;;;;5037376;28;20056;-56
2023/10/05 13:35:38;;;;;;;273.90;76.40;;;;;;;;;;5039369;28;20217;-56
2023/10/05 13:38:08;;;;;;;418.52;82.40;;;;;;;;;;5037671;28;20188;-57
2023/10/05 13:40:34;;;;;;;299.38;77.00;;;;;;;;;;5038454;28;20513;-56
2023/10/05 13:43:00;;;;;;;420.10;82.00;;;;;;;;;;5037540;28;20032;-55
2023/10/05 13:45:28;;;;;;;346.27;79.07;;;;;;;;;;5037141;28;20036;-56
2023/10/05 13:47:54;;;;;;;257.15;76.50;;;;;;;;;;5038222;28;20017;-54
2023/10/05 13:50:22;;;;;;;302.75;78.72;;;;;;;;;;5037349;28;20331;-55
2023/10/05 13:52:50;;;;;;;324.50;78.57;;;;;;;;;;5039243;28;20017;-56
2023/10/05 13:55:19;;;;;;;284.45;77.47;;;;;;;;;;5037907;28;20025;-57
2023/10/05 13:57:44;;;;;;;285.25;77.60;;;;;;;;;;5038984;28;20017;-56
2023/10/05 14:00:18;;;;;;;454.87;86.60;;;;;;;;;;5036617;28;20033;-56
2023/10/05 14:02:44;;;;;;;310.92;79.88;;;;;;;;;;5038112;28;20289;-55
2023/10/05 14:05:09;;;;;;;424.10;85.50;;;;;;;;;;5035769;28;20925;-56
2023/10/05 14:07:34;;;;;;;389.13;82.73;;;;;;;;;;5037377;28;20303;-54
2023/10/05 14:10:00;;;;;;;408.00;85.40;;;;;;;;;;5036416;28;20336;-54
2023/10/05 14:12:25;;;;;;;349.00;81.68;;;;;;;;;;5038118;28;20653;-54
2023/10/05 14:14:50;;;;;;;316.50;80.20;;;;;;;;;;5038305;28;20029;-55
2023/10/05 14:17:16;;;;;;;332.92;81.57;;;;;;;;;;5036287;28;20033;-57
2023/10/05 14:19:42;;;;;;;356.27;81.35;;;;;;;;;;5036474;28;20029;-56
2023/10/05 14:22:09;;;;;;;453.60;87.28;;;;;;;;;;5035454;28;20461;-57
2023/10/05 14:24:34;;;;;;;320.60;81.18;;;;;;;;;;5036460;28;20108;-55
2023/10/05 14:27:04;;;;;;;435.77;86.55;;;;;;;;;;5035061;28;20136;-56
2023/10/05 14:29:36;;;;;;;308.50;81.15;;;;;;;;;;5037172;28;20029;-55